sensor_id;sensor_type;location;lat;lon;timestamp;P1;durP1;ratioP1;P2;durP2;ratioP2
25717;SDS011;13574;52.040;5.692;2023-05-10T00:02:08;45.70;;;18.95;;
25717;SDS011;13574;52.040;5.692;2023-05-10T00:04:34;42.90;;;17.10;;
25717;SDS011;13574;52.040;5.692;2023-05-10T00:07:00;40.80;;;16.50;;
25717;SDS011;13574;52.040;5.692;2023-05-10T00:09:25;43.20;;;18.13;;
25717;SDS011;13574;52.040;5.692;2023-05-10T00:11:51;39.08;;;17.55;;
25717;SDS011;13574;52.040;5.692;2023-05-10T00:14:16;52.10;;;19.55;;
25717;SDS011;13574;52.040;5.692;2023-05-10T00:16:42;45.80;;;17.27;;
25717;SDS011;13574;52.040;5.692;2023-05-10T00:19:08;45.13;;;18.67;;
25717;SDS011;13574;52.040;5.692;2023-05-10T00:21:33;43.47;;;18.27;;
25717;SDS011;13574;52.040;5.692;2023-05-10T00:23:59;44.90;;;18.88;;
25717;SDS011;13574;52.040;5.692;2023-05-10T00:26:25;46.20;;;18.52;;
25717;SDS011;13574;52.040;5.692;2023-05-10T00:28:51;50.97;;;19.42;;
25717;SDS011;13574;52.040;5.692;2023-05-10T00:31:16;44.67;;;18.20;;
25717;SDS011;13574;52.040;5.692;2023-05-10T00:33:42;44.88;;;17.65;;
25717;SDS011;13574;52.040;5.692;2023-05-10T00:36:07;45.78;;;18.58;;
25717;SDS011;13574;52.040;5.692;2023-05-10T00:38:33;45.03;;;18.60;;
25717;SDS011;13574;52.040;5.692;2023-05-10T00:40:59;54.20;;;21.35;;
25717;SDS011;13574;52.040;5.692;2023-05-10T00:43:25;53.20;;;20.58;;
25717;SDS011;13574;52.040;5.692;2023-05-10T00:45:50;47.85;;;20.00;;
25717;SDS011;13574;52.040;5.692;2023-05-10T00:48:17;48.28;;;19.85;;
25717;SDS011;13574;52.040;5.692;2023-05-10T00:50:43;50.20;;;21.45;;
25717;SDS011;13574;52.040;5.692;2023-05-10T00:53:09;51.45;;;22.58;;
25717;SDS011;13574;52.040;5.692;2023-05-10T00:55:35;48.85;;;20.85;;
25717;SDS011;13574;52.040;5.692;2023-05-10T00:58:02;58.08;;;25.05;;
25717;SDS011;13574;52.040;5.692;2023-05-10T01:00:28;55.70;;;23.48;;
25717;SDS011;13574;52.040;5.692;2023-05-10T01:02:54;58.92;;;24.63;;
25717;SDS011;13574;52.040;5.692;2023-05-10T01:05:20;56.40;;;25.23;;
25717;SDS011;13574;52.040;5.692;2023-05-10T01:07:46;61.05;;;23.73;;
25717;SDS011;13574;52.040;5.692;2023-05-10T01:10:12;54.40;;;23.75;;
25717;SDS011;13574;52.040;5.692;2023-05-10T01:12:39;58.47;;;23.80;;
25717;SDS011;13574;52.040;5.692;2023-05-10T01:15:09;57.38;;;23.77;;
25717;SDS011;13574;52.040;5.692;2023-05-10T01:17:37;59.47;;;24.83;;
25717;SDS011;13574;52.040;5.692;2023-05-10T01:20:04;60.13;;;23.98;;
25717;SDS011;13574;52.040;5.692;2023-05-10T01:25:58;59.75;;;24.95;;
25717;SDS011;13574;52.040;5.692;2023-05-10T01:33:56;64.85;;;25.17;;
25717;SDS011;13574;52.040;5.692;2023-05-10T01:39:01;61.40;;;24.77;;
25717;SDS011;13574;52.040;5.692;2023-05-10T01:45:27;65.95;;;25.77;;
25717;SDS011;13574;52.040;5.692;2023-05-10T01:47:46;55.58;;;22.20;;
25717;SDS011;13574;52.040;5.692;2023-05-10T01:53:08;51.17;;;21.52;;
25717;SDS011;13574;52.040;5.692;2023-05-10T01:55:39;58.45;;;23.55;;
25717;SDS011;13574;52.040;5.692;2023-05-10T01:58:11;51.80;;;21.60;;
25717;SDS011;13574;52.040;5.692;2023-05-10T02:00:40;60.83;;;22.88;;
25717;SDS011;13574;52.040;5.692;2023-05-10T02:03:09;67.22;;;23.38;;
25717;SDS011;13574;52.040;5.692;2023-05-10T02:05:36;55.35;;;21.88;;
25717;SDS011;13574;52.040;5.692;2023-05-10T02:08:05;55.85;;;21.45;;
25717;SDS011;13574;52.040;5.692;2023-05-10T02:10:32;54.17;;;20.92;;
25717;SDS011;13574;52.040;5.692;2023-05-10T02:13:01;53.90;;;20.98;;
25717;SDS011;13574;52.040;5.692;2023-05-10T02:15:27;52.45;;;20.75;;
25717;SDS011;13574;52.040;5.692;2023-05-10T02:17:55;58.45;;;21.80;;
25717;SDS011;13574;52.040;5.692;2023-05-10T02:20:23;52.83;;;20.67;;
25717;SDS011;13574;52.040;5.692;2023-05-10T02:22:50;56.30;;;21.45;;
25717;SDS011;13574;52.040;5.692;2023-05-10T02:25:19;59.30;;;21.30;;
25717;SDS011;13574;52.040;5.692;2023-05-10T02:27:46;55.83;;;21.20;;
25717;SDS011;13574;52.040;5.692;2023-05-10T02:30:13;54.17;;;21.70;;
25717;SDS011;13574;52.040;5.692;2023-05-10T02:32:39;60.40;;;21.70;;
25717;SDS011;13574;52.040;5.692;2023-05-10T02:35:06;55.22;;;21.17;;
25717;SDS011;13574;52.040;5.692;2023-05-10T02:37:33;55.70;;;21.77;;
25717;SDS011;13574;52.040;5.692;2023-05-10T02:40:00;58.88;;;22.00;;
25717;SDS011;13574;52.040;5.692;2023-05-10T02:42:28;55.95;;;21.98;;
25717;SDS011;13574;52.040;5.692;2023-05-10T02:44:59;57.70;;;22.30;;
25717;SDS011;13574;52.040;5.692;2023-05-10T02:47:27;55.70;;;22.73;;
25717;SDS011;13574;52.040;5.692;2023-05-10T02:49:53;58.67;;;22.58;;
25717;SDS011;13574;52.040;5.692;2023-05-10T02:52:21;56.63;;;20.60;;
25717;SDS011;13574;52.040;5.692;2023-05-10T02:54:50;63.83;;;23.05;;
25717;SDS011;13574;52.040;5.692;2023-05-10T02:57:21;56.22;;;22.92;;
25717;SDS011;13574;52.040;5.692;2023-05-10T02:59:51;59.83;;;23.58;;
25717;SDS011;13574;52.040;5.692;2023-05-10T03:02:16;61.80;;;24.02;;
25717;SDS011;13574;52.040;5.692;2023-05-10T03:04:42;64.25;;;24.08;;
25717;SDS011;13574;52.040;5.692;2023-05-10T03:07:08;64.40;;;22.95;;
25717;SDS011;13574;52.040;5.692;2023-05-10T03:09:34;66.80;;;24.02;;
25717;SDS011;13574;52.040;5.692;2023-05-10T03:14:34;72.25;;;24.80;;
25717;SDS011;13574;52.040;5.692;2023-05-10T03:20:11;62.90;;;23.90;;
25717;SDS011;13574;52.040;5.692;2023-05-10T03:22:55;60.70;;;23.08;;
25717;SDS011;13574;52.040;5.692;2023-05-10T03:25:27;67.28;;;24.52;;
25717;SDS011;13574;52.040;5.692;2023-05-10T03:27:54;68.10;;;25.70;;
25717;SDS011;13574;52.040;5.692;2023-05-10T03:30:22;58.75;;;22.80;;
25717;SDS011;13574;52.040;5.692;2023-05-10T03:32:48;64.40;;;24.27;;
25717;SDS011;13574;52.040;5.692;2023-05-10T03:35:14;66.63;;;24.35;;
25717;SDS011;13574;52.040;5.692;2023-05-10T03:37:40;61.95;;;24.05;;
25717;SDS011;13574;52.040;5.692;2023-05-10T03:40:05;63.50;;;23.20;;
25717;SDS011;13574;52.040;5.692;2023-05-10T03:42:32;69.13;;;25.13;;
25717;SDS011;13574;52.040;5.692;2023-05-10T03:44:57;65.55;;;25.42;;
25717;SDS011;13574;52.040;5.692;2023-05-10T03:47:23;67.03;;;25.30;;
25717;SDS011;13574;52.040;5.692;2023-05-10T03:49:48;64.93;;;25.63;;
25717;SDS011;13574;52.040;5.692;2023-05-10T03:52:14;63.92;;;25.50;;
25717;SDS011;13574;52.040;5.692;2023-05-10T03:54:40;69.13;;;25.05;;
25717;SDS011;13574;52.040;5.692;2023-05-10T03:57:06;66.07;;;24.08;;
25717;SDS011;13574;52.040;5.692;2023-05-10T03:59:31;62.13;;;23.48;;
25717;SDS011;13574;52.040;5.692;2023-05-10T04:01:57;75.95;;;26.40;;
25717;SDS011;13574;52.040;5.692;2023-05-10T04:04:23;65.93;;;25.30;;
25717;SDS011;13574;52.040;5.692;2023-05-10T04:06:48;68.43;;;25.48;;
25717;SDS011;13574;52.040;5.692;2023-05-10T04:09:14;69.15;;;25.45;;
25717;SDS011;13574;52.040;5.692;2023-05-10T04:11:41;67.50;;;23.77;;
25717;SDS011;13574;52.040;5.692;2023-05-10T04:14:06;67.90;;;24.20;;
25717;SDS011;13574;52.040;5.692;2023-05-10T04:16:32;61.65;;;22.95;;
25717;SDS011;13574;52.040;5.692;2023-05-10T04:18:58;60.75;;;22.95;;
25717;SDS011;13574;52.040;5.692;2023-05-10T04:21:24;63.80;;;22.92;;
25717;SDS011;13574;52.040;5.692;2023-05-10T04:23:50;63.78;;;23.10;;
25717;SDS011;13574;52.040;5.692;2023-05-10T04:26:16;65.95;;;23.13;;
25717;SDS011;13574;52.040;5.692;2023-05-10T04:28:41;64.70;;;21.92;;
25717;SDS011;13574;52.040;5.692;2023-05-10T04:31:07;66.90;;;23.30;;
25717;SDS011;13574;52.040;5.692;2023-05-10T04:33:34;70.32;;;24.02;;
25717;SDS011;13574;52.040;5.692;2023-05-10T04:36:00;68.60;;;23.73;;
25717;SDS011;13574;52.040;5.692;2023-05-10T04:38:27;72.78;;;23.80;;
25717;SDS011;13574;52.040;5.692;2023-05-10T04:40:53;65.75;;;23.20;;
25717;SDS011;13574;52.040;5.692;2023-05-10T04:43:19;63.53;;;23.02;;
25717;SDS011;13574;52.040;5.692;2023-05-10T04:45:45;64.07;;;23.23;;
25717;SDS011;13574;52.040;5.692;2023-05-10T04:48:11;63.72;;;22.35;;
25717;SDS011;13574;52.040;5.692;2023-05-10T04:50:37;63.92;;;23.42;;
25717;SDS011;13574;52.040;5.692;2023-05-10T04:53:03;65.88;;;22.00;;
25717;SDS011;13574;52.040;5.692;2023-05-10T04:55:29;55.53;;;20.92;;
25717;SDS011;13574;52.040;5.692;2023-05-10T04:57:55;56.05;;;21.20;;
25717;SDS011;13574;52.040;5.692;2023-05-10T05:00:22;55.55;;;20.48;;
25717;SDS011;13574;52.040;5.692;2023-05-10T05:02:48;55.38;;;20.65;;
25717;SDS011;13574;52.040;5.692;2023-05-10T05:05:14;61.28;;;19.88;;
25717;SDS011;13574;52.040;5.692;2023-05-10T05:07:39;52.88;;;19.95;;
25717;SDS011;13574;52.040;5.692;2023-05-10T05:10:06;53.53;;;19.88;;
25717;SDS011;13574;52.040;5.692;2023-05-10T05:12:32;54.30;;;21.10;;
25717;SDS011;13574;52.040;5.692;2023-05-10T05:14:58;50.17;;;20.13;;
25717;SDS011;13574;52.040;5.692;2023-05-10T05:17:23;53.25;;;19.33;;
25717;SDS011;13574;52.040;5.692;2023-05-10T05:19:49;57.90;;;20.13;;
25717;SDS011;13574;52.040;5.692;2023-05-10T05:22:15;61.03;;;19.90;;
25717;SDS011;13574;52.040;5.692;2023-05-10T05:24:41;58.35;;;20.05;;
25717;SDS011;13574;52.040;5.692;2023-05-10T05:27:06;56.05;;;20.85;;
25717;SDS011;13574;52.040;5.692;2023-05-10T05:29:32;67.60;;;21.98;;
25717;SDS011;13574;52.040;5.692;2023-05-10T05:31:58;71.55;;;24.35;;
25717;SDS011;13574;52.040;5.692;2023-05-10T05:34:24;65.60;;;22.15;;
25717;SDS011;13574;52.040;5.692;2023-05-10T05:36:50;65.45;;;23.58;;
25717;SDS011;13574;52.040;5.692;2023-05-10T05:39:19;68.53;;;24.08;;
25717;SDS011;13574;52.040;5.692;2023-05-10T05:41:45;68.35;;;24.63;;
25717;SDS011;13574;52.040;5.692;2023-05-10T05:44:11;58.75;;;23.02;;
25717;SDS011;13574;52.040;5.692;2023-05-10T05:46:37;67.22;;;23.77;;
25717;SDS011;13574;52.040;5.692;2023-05-10T05:49:03;67.20;;;23.90;;
25717;SDS011;13574;52.040;5.692;2023-05-10T05:51:28;67.97;;;25.45;;
25717;SDS011;13574;52.040;5.692;2023-05-10T05:53:54;67.80;;;25.40;;
25717;SDS011;13574;52.040;5.692;2023-05-10T05:56:20;70.22;;;25.10;;
25717;SDS011;13574;52.040;5.692;2023-05-10T05:58:49;64.72;;;25.27;;
25717;SDS011;13574;52.040;5.692;2023-05-10T06:01:15;69.97;;;25.55;;
25717;SDS011;13574;52.040;5.692;2023-05-10T06:03:41;69.00;;;26.35;;
25717;SDS011;13574;52.040;5.692;2023-05-10T06:06:07;67.10;;;24.52;;
25717;SDS011;13574;52.040;5.692;2023-05-10T06:08:32;70.38;;;25.27;;
25717;SDS011;13574;52.040;5.692;2023-05-10T06:10:59;73.30;;;26.02;;
25717;SDS011;13574;52.040;5.692;2023-05-10T06:13:25;63.95;;;24.92;;
25717;SDS011;13574;52.040;5.692;2023-05-10T06:15:56;64.47;;;23.83;;
25717;SDS011;13574;52.040;5.692;2023-05-10T06:18:25;65.32;;;24.98;;
25717;SDS011;13574;52.040;5.692;2023-05-10T06:20:51;65.35;;;23.90;;
25717;SDS011;13574;52.040;5.692;2023-05-10T06:23:17;65.35;;;25.02;;
25717;SDS011;13574;52.040;5.692;2023-05-10T06:25:43;69.97;;;26.23;;
25717;SDS011;13574;52.040;5.692;2023-05-10T06:28:08;65.88;;;24.55;;
25717;SDS011;13574;52.040;5.692;2023-05-10T06:30:35;69.97;;;25.63;;
25717;SDS011;13574;52.040;5.692;2023-05-10T06:33:01;72.63;;;25.27;;
25717;SDS011;13574;52.040;5.692;2023-05-10T06:35:27;65.72;;;25.48;;
25717;SDS011;13574;52.040;5.692;2023-05-10T06:37:54;59.72;;;22.35;;
25717;SDS011;13574;52.040;5.692;2023-05-10T06:40:19;65.05;;;23.40;;
25717;SDS011;13574;52.040;5.692;2023-05-10T06:42:45;56.00;;;21.48;;
25717;SDS011;13574;52.040;5.692;2023-05-10T06:45:12;60.42;;;22.48;;
25717;SDS011;13574;52.040;5.692;2023-05-10T06:47:39;48.42;;;20.35;;
25717;SDS011;13574;52.040;5.692;2023-05-10T06:50:05;57.88;;;22.30;;
25717;SDS011;13574;52.040;5.692;2023-05-10T06:52:35;60.50;;;23.35;;
25717;SDS011;13574;52.040;5.692;2023-05-10T06:55:01;61.42;;;23.20;;
25717;SDS011;13574;52.040;5.692;2023-05-10T06:57:28;61.67;;;23.40;;
25717;SDS011;13574;52.040;5.692;2023-05-10T06:59:54;65.03;;;22.95;;
25717;SDS011;13574;52.040;5.692;2023-05-10T07:02:21;65.05;;;23.05;;
25717;SDS011;13574;52.040;5.692;2023-05-10T07:04:47;62.83;;;22.83;;
25717;SDS011;13574;52.040;5.692;2023-05-10T07:07:13;64.32;;;23.00;;
25717;SDS011;13574;52.040;5.692;2023-05-10T07:09:39;70.30;;;25.13;;
25717;SDS011;13574;52.040;5.692;2023-05-10T07:12:06;66.35;;;24.38;;
25717;SDS011;13574;52.040;5.692;2023-05-10T07:14:32;63.10;;;24.20;;
25717;SDS011;13574;52.040;5.692;2023-05-10T07:16:57;69.53;;;25.10;;
25717;SDS011;13574;52.040;5.692;2023-05-10T07:19:23;68.60;;;25.20;;
25717;SDS011;13574;52.040;5.692;2023-05-10T07:21:49;75.00;;;25.35;;
25717;SDS011;13574;52.040;5.692;2023-05-10T07:24:15;65.03;;;24.42;;
25717;SDS011;13574;52.040;5.692;2023-05-10T07:26:40;70.65;;;25.63;;
25717;SDS011;13574;52.040;5.692;2023-05-10T07:29:06;65.88;;;24.67;;
25717;SDS011;13574;52.040;5.692;2023-05-10T07:31:32;71.68;;;24.40;;
25717;SDS011;13574;52.040;5.692;2023-05-10T07:33:57;66.68;;;23.85;;
25717;SDS011;13574;52.040;5.692;2023-05-10T07:36:23;64.47;;;23.10;;
25717;SDS011;13574;52.040;5.692;2023-05-10T07:38:49;68.90;;;25.48;;
25717;SDS011;13574;52.040;5.692;2023-05-10T07:41:14;59.28;;;23.63;;
25717;SDS011;13574;52.040;5.692;2023-05-10T07:43:40;59.35;;;22.77;;
25717;SDS011;13574;52.040;5.692;2023-05-10T07:46:06;51.38;;;21.58;;
25717;SDS011;13574;52.040;5.692;2023-05-10T07:48:31;54.33;;;21.95;;
25717;SDS011;13574;52.040;5.692;2023-05-10T07:50:57;52.47;;;21.35;;
25717;SDS011;13574;52.040;5.692;2023-05-10T07:53:23;50.28;;;20.08;;
25717;SDS011;13574;52.040;5.692;2023-05-10T07:55:57;48.72;;;20.58;;
25717;SDS011;13574;52.040;5.692;2023-05-10T07:58:23;42.45;;;18.92;;
25717;SDS011;13574;52.040;5.692;2023-05-10T08:00:49;44.65;;;17.95;;
25717;SDS011;13574;52.040;5.692;2023-05-10T08:03:15;42.35;;;18.13;;
25717;SDS011;13574;52.040;5.692;2023-05-10T08:05:41;37.95;;;16.75;;
25717;SDS011;13574;52.040;5.692;2023-05-10T08:08:06;39.22;;;16.58;;
25717;SDS011;13574;52.040;5.692;2023-05-10T08:10:32;41.63;;;15.98;;
25717;SDS011;13574;52.040;5.692;2023-05-10T08:12:58;32.45;;;15.13;;
25717;SDS011;13574;52.040;5.692;2023-05-10T08:15:24;37.10;;;16.27;;
25717;SDS011;13574;52.040;5.692;2023-05-10T08:17:51;30.73;;;14.65;;
25717;SDS011;13574;52.040;5.692;2023-05-10T08:20:17;25.73;;;12.25;;
25717;SDS011;13574;52.040;5.692;2023-05-10T08:22:44;28.75;;;13.50;;
25717;SDS011;13574;52.040;5.692;2023-05-10T08:25:10;32.00;;;13.70;;
25717;SDS011;13574;52.040;5.692;2023-05-10T08:27:36;23.40;;;11.40;;
25717;SDS011;13574;52.040;5.692;2023-05-10T08:30:01;23.08;;;11.10;;
25717;SDS011;13574;52.040;5.692;2023-05-10T08:32:27;21.55;;;9.90;;
25717;SDS011;13574;52.040;5.692;2023-05-10T08:34:53;21.25;;;9.90;;
25717;SDS011;13574;52.040;5.692;2023-05-10T08:37:19;28.30;;;11.15;;
25717;SDS011;13574;52.040;5.692;2023-05-10T08:39:45;24.25;;;11.70;;
25717;SDS011;13574;52.040;5.692;2023-05-10T08:42:12;20.17;;;9.45;;
25717;SDS011;13574;52.040;5.692;2023-05-10T08:44:44;19.80;;;10.20;;
25717;SDS011;13574;52.040;5.692;2023-05-10T08:47:13;20.23;;;9.38;;
25717;SDS011;13574;52.040;5.692;2023-05-10T08:49:42;18.92;;;9.43;;
25717;SDS011;13574;52.040;5.692;2023-05-10T08:52:11;18.42;;;9.20;;
25717;SDS011;13574;52.040;5.692;2023-05-10T08:54:39;16.20;;;8.88;;
25717;SDS011;13574;52.040;5.692;2023-05-10T08:57:06;18.25;;;8.90;;
25717;SDS011;13574;52.040;5.692;2023-05-10T08:59:32;16.40;;;8.90;;
25717;SDS011;13574;52.040;5.692;2023-05-10T09:01:58;18.20;;;8.73;;
25717;SDS011;13574;52.040;5.692;2023-05-10T09:04:24;18.15;;;9.23;;
25717;SDS011;13574;52.040;5.692;2023-05-10T09:06:50;17.83;;;8.65;;
25717;SDS011;13574;52.040;5.692;2023-05-10T09:09:17;16.98;;;8.82;;
25717;SDS011;13574;52.040;5.692;2023-05-10T09:11:43;15.25;;;8.32;;
25717;SDS011;13574;52.040;5.692;2023-05-10T09:14:09;19.80;;;8.90;;
25717;SDS011;13574;52.040;5.692;2023-05-10T09:16:37;15.98;;;8.38;;
25717;SDS011;13574;52.040;5.692;2023-05-10T09:19:03;18.75;;;9.63;;
25717;SDS011;13574;52.040;5.692;2023-05-10T09:21:29;16.95;;;8.45;;
25717;SDS011;13574;52.040;5.692;2023-05-10T09:23:56;16.60;;;8.95;;
25717;SDS011;13574;52.040;5.692;2023-05-10T09:26:22;19.08;;;9.35;;
25717;SDS011;13574;52.040;5.692;2023-05-10T09:28:52;16.85;;;9.60;;
25717;SDS011;13574;52.040;5.692;2023-05-10T09:31:19;19.05;;;9.27;;
25717;SDS011;13574;52.040;5.692;2023-05-10T09:33:45;19.83;;;9.20;;
25717;SDS011;13574;52.040;5.692;2023-05-10T09:36:12;17.73;;;9.75;;
25717;SDS011;13574;52.040;5.692;2023-05-10T09:38:44;19.38;;;10.23;;
25717;SDS011;13574;52.040;5.692;2023-05-10T09:41:23;22.77;;;10.23;;
25717;SDS011;13574;52.040;5.692;2023-05-10T09:43:50;21.00;;;10.88;;
25717;SDS011;13574;52.040;5.692;2023-05-10T09:48:47;21.58;;;10.35;;
25717;SDS011;13574;52.040;5.692;2023-05-10T09:51:20;20.38;;;10.18;;
25717;SDS011;13574;52.040;5.692;2023-05-10T09:54:34;23.30;;;10.20;;
25717;SDS011;13574;52.040;5.692;2023-05-10T09:56:39;19.70;;;9.60;;
25717;SDS011;13574;52.040;5.692;2023-05-10T09:59:06;19.52;;;10.20;;
25717;SDS011;13574;52.040;5.692;2023-05-10T10:01:34;21.13;;;10.23;;
25717;SDS011;13574;52.040;5.692;2023-05-10T10:04:09;19.67;;;10.18;;
25717;SDS011;13574;52.040;5.692;2023-05-10T10:06:37;19.02;;;9.88;;
25717;SDS011;13574;52.040;5.692;2023-05-10T10:09:05;18.83;;;10.32;;
25717;SDS011;13574;52.040;5.692;2023-05-10T10:11:31;18.55;;;9.35;;
25717;SDS011;13574;52.040;5.692;2023-05-10T10:13:58;16.50;;;9.68;;
25717;SDS011;13574;52.040;5.692;2023-05-10T10:16:25;17.15;;;9.38;;
25717;SDS011;13574;52.040;5.692;2023-05-10T10:18:55;18.33;;;9.57;;
25717;SDS011;13574;52.040;5.692;2023-05-10T10:21:21;17.45;;;9.63;;
25717;SDS011;13574;52.040;5.692;2023-05-10T10:23:48;16.65;;;9.57;;
25717;SDS011;13574;52.040;5.692;2023-05-10T10:26:14;15.18;;;9.02;;
25717;SDS011;13574;52.040;5.692;2023-05-10T10:34:03;16.83;;;8.70;;
25717;SDS011;13574;52.040;5.692;2023-05-10T10:36:47;16.70;;;8.85;;
25717;SDS011;13574;52.040;5.692;2023-05-10T10:39:13;13.75;;;8.23;;
25717;SDS011;13574;52.040;5.692;2023-05-10T10:41:40;13.07;;;7.75;;
25717;SDS011;13574;52.040;5.692;2023-05-10T10:49:34;12.60;;;7.30;;
25717;SDS011;13574;52.040;5.692;2023-05-10T10:52:22;14.18;;;7.85;;
25717;SDS011;13574;52.040;5.692;2023-05-10T10:57:43;13.77;;;7.40;;
25717;SDS011;13574;52.040;5.692;2023-05-10T11:00:25;15.15;;;7.22;;
25717;SDS011;13574;52.040;5.692;2023-05-10T11:02:56;12.05;;;6.68;;
25717;SDS011;13574;52.040;5.692;2023-05-10T11:10:20;10.52;;;6.20;;
25717;SDS011;13574;52.040;5.692;2023-05-10T11:13:03;13.05;;;7.22;;
25717;SDS011;13574;52.040;5.692;2023-05-10T11:18:01;13.98;;;6.90;;
25717;SDS011;13574;52.040;5.692;2023-05-10T11:21:08;13.52;;;7.40;;
25717;SDS011;13574;52.040;5.692;2023-05-10T11:26:07;10.60;;;6.68;;
25717;SDS011;13574;52.040;5.692;2023-05-10T11:28:34;15.02;;;6.65;;
25717;SDS011;13574;52.040;5.692;2023-05-10T11:31:06;12.95;;;7.35;;
25717;SDS011;13574;52.040;5.692;2023-05-10T11:33:42;14.32;;;7.25;;
25717;SDS011;13574;52.040;5.692;2023-05-10T11:36:15;15.35;;;6.57;;
25717;SDS011;13574;52.040;5.692;2023-05-10T11:38:45;14.02;;;7.13;;
25717;SDS011;13574;52.040;5.692;2023-05-10T11:41:11;12.00;;;6.95;;
25717;SDS011;13574;52.040;5.692;2023-05-10T11:43:41;13.65;;;6.47;;
25717;SDS011;13574;52.040;5.692;2023-05-10T11:46:07;22.88;;;8.50;;
25717;SDS011;13574;52.040;5.692;2023-05-10T11:48:36;17.08;;;7.40;;
25717;SDS011;13574;52.040;5.692;2023-05-10T11:51:03;13.30;;;6.93;;
25717;SDS011;13574;52.040;5.692;2023-05-10T11:53:31;12.90;;;7.15;;
25717;SDS011;13574;52.040;5.692;2023-05-10T11:56:07;11.95;;;6.63;;
25717;SDS011;13574;52.040;5.692;2023-05-10T11:58:35;10.52;;;6.45;;
25717;SDS011;13574;52.040;5.692;2023-05-10T12:01:02;13.32;;;6.72;;
25717;SDS011;13574;52.040;5.692;2023-05-10T12:03:29;10.07;;;6.57;;
25717;SDS011;13574;52.040;5.692;2023-05-10T12:05:55;11.98;;;6.30;;
25717;SDS011;13574;52.040;5.692;2023-05-10T12:08:25;10.45;;;6.05;;
25717;SDS011;13574;52.040;5.692;2023-05-10T12:13:38;10.25;;;6.55;;
25717;SDS011;13574;52.040;5.692;2023-05-10T12:16:18;11.77;;;6.25;;
25717;SDS011;13574;52.040;5.692;2023-05-10T12:18:48;15.30;;;5.93;;
25717;SDS011;13574;52.040;5.692;2023-05-10T12:21:15;10.90;;;5.93;;
25717;SDS011;13574;52.040;5.692;2023-05-10T12:23:41;12.38;;;6.22;;
25717;SDS011;13574;52.040;5.692;2023-05-10T12:26:10;10.65;;;5.97;;
25717;SDS011;13574;52.040;5.692;2023-05-10T12:28:37;10.27;;;5.50;;
25717;SDS011;13574;52.040;5.692;2023-05-10T12:31:05;11.18;;;5.55;;
25717;SDS011;13574;52.040;5.692;2023-05-10T12:33:41;10.02;;;5.63;;
25717;SDS011;13574;52.040;5.692;2023-05-10T12:36:12;9.40;;;5.45;;
25717;SDS011;13574;52.040;5.692;2023-05-10T12:38:40;9.40;;;5.72;;
25717;SDS011;13574;52.040;5.692;2023-05-10T12:41:17;8.48;;;5.40;;
25717;SDS011;13574;52.040;5.692;2023-05-10T12:43:43;10.18;;;5.07;;
25717;SDS011;13574;52.040;5.692;2023-05-10T12:46:11;9.85;;;5.35;;
25717;SDS011;13574;52.040;5.692;2023-05-10T12:48:38;10.50;;;5.15;;
25717;SDS011;13574;52.040;5.692;2023-05-10T12:51:05;9.18;;;5.68;;
25717;SDS011;13574;52.040;5.692;2023-05-10T12:53:34;10.63;;;5.45;;
25717;SDS011;13574;52.040;5.692;2023-05-10T12:56:00;9.15;;;5.32;;
25717;SDS011;13574;52.040;5.692;2023-05-10T12:58:26;8.07;;;5.70;;
25717;SDS011;13574;52.040;5.692;2023-05-10T13:00:51;9.25;;;5.28;;
25717;SDS011;13574;52.040;5.692;2023-05-10T13:03:17;8.32;;;5.32;;
25717;SDS011;13574;52.040;5.692;2023-05-10T13:05:43;8.90;;;5.53;;
25717;SDS011;13574;52.040;5.692;2023-05-10T13:08:09;8.68;;;5.18;;
25717;SDS011;13574;52.040;5.692;2023-05-10T13:10:34;8.38;;;5.22;;
25717;SDS011;13574;52.040;5.692;2023-05-10T13:13:00;8.52;;;4.55;;
25717;SDS011;13574;52.040;5.692;2023-05-10T13:15:26;8.80;;;5.10;;
25717;SDS011;13574;52.040;5.692;2023-05-10T13:17:52;10.48;;;5.00;;
25717;SDS011;13574;52.040;5.692;2023-05-10T13:20:19;8.57;;;5.18;;
25717;SDS011;13574;52.040;5.692;2023-05-10T13:22:44;7.53;;;4.88;;
25717;SDS011;13574;52.040;5.692;2023-05-10T13:25:10;10.70;;;5.28;;
25717;SDS011;13574;52.040;5.692;2023-05-10T13:27:37;8.75;;;6.00;;
25717;SDS011;13574;52.040;5.692;2023-05-10T13:30:04;14.05;;;7.15;;
25717;SDS011;13574;52.040;5.692;2023-05-10T13:32:30;27.95;;;9.05;;
25717;SDS011;13574;52.040;5.692;2023-05-10T13:34:56;15.75;;;8.20;;
25717;SDS011;13574;52.040;5.692;2023-05-10T13:37:22;18.27;;;9.07;;
25717;SDS011;13574;52.040;5.692;2023-05-10T13:39:47;13.70;;;9.20;;
25717;SDS011;13574;52.040;5.692;2023-05-10T13:42:13;14.00;;;9.07;;
25717;SDS011;13574;52.040;5.692;2023-05-10T13:44:39;13.35;;;9.13;;
25717;SDS011;13574;52.040;5.692;2023-05-10T13:47:05;16.83;;;10.23;;
25717;SDS011;13574;52.040;5.692;2023-05-10T13:49:31;15.57;;;10.00;;
25717;SDS011;13574;52.040;5.692;2023-05-10T13:51:57;14.55;;;9.88;;
25717;SDS011;13574;52.040;5.692;2023-05-10T13:54:23;15.43;;;8.38;;
25717;SDS011;13574;52.040;5.692;2023-05-10T13:56:48;13.93;;;7.80;;
25717;SDS011;13574;52.040;5.692;2023-05-10T13:59:14;13.38;;;6.93;;
25717;SDS011;13574;52.040;5.692;2023-05-10T14:01:40;13.48;;;7.32;;
25717;SDS011;13574;52.040;5.692;2023-05-10T14:04:07;13.20;;;7.15;;
25717;SDS011;13574;52.040;5.692;2023-05-10T14:06:35;17.30;;;7.63;;
25717;SDS011;13574;52.040;5.692;2023-05-10T14:09:01;15.85;;;7.50;;
25717;SDS011;13574;52.040;5.692;2023-05-10T14:11:27;13.10;;;7.70;;
25717;SDS011;13574;52.040;5.692;2023-05-10T14:13:53;12.10;;;7.47;;
25717;SDS011;13574;52.040;5.692;2023-05-10T14:16:19;12.85;;;8.15;;
25717;SDS011;13574;52.040;5.692;2023-05-10T14:18:45;11.35;;;6.60;;
25717;SDS011;13574;52.040;5.692;2023-05-10T14:21:11;11.10;;;6.93;;
25717;SDS011;13574;52.040;5.692;2023-05-10T14:23:37;12.40;;;6.97;;
25717;SDS011;13574;52.040;5.692;2023-05-10T14:26:03;10.27;;;6.22;;
25717;SDS011;13574;52.040;5.692;2023-05-10T14:28:29;8.43;;;5.70;;
25717;SDS011;13574;52.040;5.692;2023-05-10T14:30:54;10.23;;;5.93;;
25717;SDS011;13574;52.040;5.692;2023-05-10T14:33:20;9.68;;;6.03;;
25717;SDS011;13574;52.040;5.692;2023-05-10T14:35:46;8.27;;;5.03;;
25717;SDS011;13574;52.040;5.692;2023-05-10T14:38:12;11.40;;;5.68;;
25717;SDS011;13574;52.040;5.692;2023-05-10T14:40:38;10.50;;;5.43;;
25717;SDS011;13574;52.040;5.692;2023-05-10T14:43:04;9.75;;;5.40;;
25717;SDS011;13574;52.040;5.692;2023-05-10T14:45:30;8.55;;;5.03;;
25717;SDS011;13574;52.040;5.692;2023-05-10T14:47:56;8.90;;;4.88;;
25717;SDS011;13574;52.040;5.692;2023-05-10T14:50:22;9.07;;;4.93;;
25717;SDS011;13574;52.040;5.692;2023-05-10T14:52:48;9.60;;;4.28;;
25717;SDS011;13574;52.040;5.692;2023-05-10T14:55:14;9.05;;;5.35;;
25717;SDS011;13574;52.040;5.692;2023-05-10T14:57:40;8.52;;;4.50;;
25717;SDS011;13574;52.040;5.692;2023-05-10T15:00:06;10.40;;;5.60;;
25717;SDS011;13574;52.040;5.692;2023-05-10T15:02:32;9.38;;;5.53;;
25717;SDS011;13574;52.040;5.692;2023-05-10T15:04:57;9.38;;;5.22;;
25717;SDS011;13574;52.040;5.692;2023-05-10T15:07:26;9.40;;;5.40;;
25717;SDS011;13574;52.040;5.692;2023-05-10T15:09:51;8.90;;;5.60;;
25717;SDS011;13574;52.040;5.692;2023-05-10T15:12:17;13.65;;;5.32;;
25717;SDS011;13574;52.040;5.692;2023-05-10T15:14:43;9.85;;;5.85;;
25717;SDS011;13574;52.040;5.692;2023-05-10T15:17:09;9.38;;;5.38;;
25717;SDS011;13574;52.040;5.692;2023-05-10T15:19:35;10.05;;;5.78;;
25717;SDS011;13574;52.040;5.692;2023-05-10T15:22:01;8.40;;;5.20;;